createdAt,value
2022-07-25T00:00:34.778Z,4.00
2022-07-25T00:06:37.032Z,3.80
2022-07-25T00:12:38.863Z,4.15
2022-07-25T00:18:40.635Z,4.00
2022-07-25T00:24:42.414Z,4.10
2022-07-25T00:30:44.314Z,4.15
2022-07-25T00:36:46.243Z,3.78
2022-07-25T00:42:48.049Z,4.53
2022-07-25T00:48:50.061Z,4.07
2022-07-25T00:54:51.856Z,4.28
2022-07-25T01:00:53.670Z,4.60
2022-07-25T01:06:55.814Z,4.47
2022-07-25T01:12:57.593Z,4.05
2022-07-25T01:18:59.739Z,4.53
2022-07-25T01:25:01.488Z,3.90
2022-07-25T01:31:03.296Z,3.45
2022-07-25T01:37:05.080Z,3.47
2022-07-25T01:43:07.166Z,4.07
2022-07-25T01:49:09.037Z,3.83
2022-07-25T01:55:11.578Z,3.85
2022-07-25T02:01:13.564Z,3.80
2022-07-25T02:07:15.362Z,3.85
2022-07-25T02:13:17.200Z,3.63
2022-07-25T02:19:18.938Z,3.08
2022-07-25T02:25:20.760Z,3.65
2022-07-25T02:31:22.608Z,3.88
2022-07-25T02:37:24.777Z,3.65
2022-07-25T02:43:26.519Z,4.13
2022-07-25T02:49:28.516Z,3.50
2022-07-25T02:55:30.738Z,3.67
2022-07-25T03:01:32.780Z,4.07
2022-07-25T03:07:34.933Z,3.70
2022-07-25T03:13:36.671Z,3.85
2022-07-25T03:19:38.393Z,3.97
2022-07-25T03:25:40.173Z,3.75
2022-07-25T03:31:41.972Z,3.72
2022-07-25T03:37:43.986Z,3.90
2022-07-25T03:43:45.889Z,3.90
2022-07-25T03:49:47.638Z,3.92
2022-07-25T03:55:49.423Z,4.40
2022-07-25T04:01:51.360Z,4.22
2022-07-25T04:07:53.151Z,4.65
2022-07-25T04:13:55.730Z,4.50
2022-07-25T04:19:57.490Z,4.33
2022-07-25T04:25:59.205Z,4.60
2022-07-25T04:32:01.038Z,4.05
2022-07-25T04:38:02.883Z,4.95
2022-07-25T04:44:05.194Z,4.20
2022-07-25T04:50:08.996Z,4.15
2022-07-25T04:56:10.722Z,4.27
2022-07-25T05:02:12.624Z,4.00
2022-07-25T05:08:14.483Z,4.35
2022-07-25T05:14:16.438Z,4.20
2022-07-25T05:20:18.196Z,4.10
2022-07-25T05:26:20.070Z,4.45
2022-07-25T05:32:21.885Z,4.10
2022-07-25T05:38:23.715Z,4.30
2022-07-25T05:44:25.458Z,5.03
2022-07-25T05:50:27.270Z,4.65
2022-07-25T05:56:30.129Z,4.25
2022-07-25T06:02:32.109Z,4.72
2022-07-25T06:08:34.078Z,4.50
2022-07-25T06:14:35.959Z,4.30
2022-07-25T06:20:37.723Z,4.22
2022-07-25T06:26:39.531Z,4.55
2022-07-25T06:32:41.300Z,4.63
2022-07-25T06:38:43.025Z,5.30
2022-07-25T06:44:45.014Z,4.60
2022-07-25T06:50:46.880Z,4.38
2022-07-25T06:56:48.677Z,4.35
2022-07-25T07:02:59.742Z,4.43
2022-07-25T07:09:01.554Z,4.05
2022-07-25T07:15:03.619Z,4.32
2022-07-25T07:21:05.797Z,4.22
2022-07-25T07:27:07.866Z,4.80
2022-07-25T07:33:10.003Z,4.40
2022-07-25T07:39:11.814Z,4.87
2022-07-25T07:45:18.016Z,5.13
2022-07-25T07:51:19.797Z,4.40
2022-07-25T07:57:21.573Z,4.57
2022-07-25T08:03:23.376Z,4.90
2022-07-25T08:09:25.898Z,5.15
2022-07-25T08:15:27.702Z,4.88
2022-07-25T08:21:29.470Z,4.65
2022-07-25T08:27:31.339Z,4.80
2022-07-25T08:33:33.182Z,5.13
2022-07-25T08:39:34.936Z,4.90
2022-07-25T08:45:39.268Z,4.90
2022-07-25T08:51:41.271Z,4.82
2022-07-25T08:57:44.009Z,5.13
2022-07-25T09:03:45.807Z,4.75
2022-07-25T09:09:48.218Z,4.90
2022-07-25T09:15:56.616Z,4.32
2022-07-25T09:22:04.344Z,4.82
2022-07-25T09:28:18.255Z,4.60
2022-07-25T09:34:39.877Z,4.57
2022-07-25T09:40:42.601Z,4.72
2022-07-25T09:46:45.017Z,4.78
2022-07-25T09:58:48.653Z,5.22
2022-07-25T10:05:18.165Z,4.93
2022-07-25T10:11:28.026Z,5.28
2022-07-25T10:17:29.982Z,5.05
2022-07-25T10:23:31.765Z,5.50
2022-07-25T10:29:35.281Z,4.83
2022-07-25T10:35:37.509Z,5.18
2022-07-25T10:41:40.933Z,4.95
2022-07-25T10:47:54.104Z,5.00
2022-07-25T10:53:56.519Z,4.63
2022-07-25T11:00:09.094Z,4.72
2022-07-25T11:06:12.808Z,4.50
2022-07-25T11:12:16.636Z,5.03
2022-07-25T11:18:18.668Z,4.60
2022-07-25T11:24:20.628Z,5.05
2022-07-25T11:30:22.426Z,4.50
2022-07-25T11:36:24.622Z,4.70
2022-07-25T11:42:28.625Z,4.60
2022-07-25T11:48:33.032Z,4.65
2022-07-25T11:54:34.794Z,4.43
2022-07-25T12:00:42.509Z,4.83
2022-07-25T12:06:46.824Z,4.70
2022-07-25T12:12:56.556Z,4.88
2022-07-25T12:18:58.703Z,4.47
2022-07-25T12:25:00.480Z,4.78
2022-07-25T12:31:02.309Z,4.93
2022-07-25T12:37:04.355Z,5.20
2022-07-25T12:43:06.745Z,4.97
2022-07-25T12:49:08.978Z,4.68
2022-07-25T12:55:14.141Z,4.57
2022-07-25T13:01:16.196Z,4.25
2022-07-25T13:07:18.019Z,4.32
2022-07-25T13:13:19.814Z,4.35
2022-07-25T13:19:21.592Z,4.80
2022-07-25T13:25:23.376Z,4.95
2022-07-25T13:31:25.164Z,4.47
2022-07-25T13:37:26.939Z,4.97
2022-07-25T13:43:28.860Z,4.65
2022-07-25T13:49:31.695Z,5.50
2022-07-25T13:55:33.512Z,5.57
2022-07-25T14:01:36.016Z,6.00
2022-07-25T14:07:37.777Z,5.65
2022-07-25T14:13:39.511Z,6.00
2022-07-25T14:19:41.206Z,5.47
2022-07-25T14:25:43.568Z,6.17
2022-07-25T14:31:45.544Z,5.93
2022-07-25T14:37:47.436Z,5.80
2022-07-25T14:43:49.594Z,5.83
2022-07-25T14:49:51.304Z,5.20
2022-07-25T14:55:53.025Z,5.00
2022-07-25T15:01:54.842Z,4.80
2022-07-25T15:07:56.566Z,3.60
2022-07-25T15:13:58.489Z,3.70
2022-07-25T15:20:00.503Z,3.87
2022-07-25T15:26:03.704Z,3.37
2022-07-25T15:32:06.292Z,3.67
2022-07-25T15:38:08.025Z,3.58
2022-07-25T15:44:09.713Z,3.00
2022-07-25T15:50:13.529Z,2.97
2022-07-25T15:56:16.215Z,2.92
2022-07-25T16:02:18.085Z,2.30
2022-07-25T16:08:19.846Z,2.25
2022-07-25T16:14:21.552Z,1.58
2022-07-25T16:20:23.527Z,1.63
2022-07-25T16:26:25.300Z,1.50
2022-07-25T16:32:28.778Z,1.45
2022-07-25T16:38:31.317Z,1.45
2022-07-25T16:44:33.123Z,1.80
2022-07-25T16:50:35.125Z,2.00
2022-07-25T16:56:37.915Z,1.70
2022-07-25T17:02:39.953Z,2.03
2022-07-25T17:08:41.790Z,2.30
2022-07-25T17:14:44.731Z,2.22
2022-07-25T17:20:46.542Z,1.92
2022-07-25T17:26:48.310Z,2.47
2022-07-25T17:32:50.146Z,2.30
2022-07-25T17:38:51.978Z,2.55
2022-07-25T17:44:53.810Z,1.85
2022-07-25T17:50:55.574Z,2.83
2022-07-25T17:56:58.466Z,2.20
2022-07-25T18:03:00.419Z,1.77
2022-07-25T18:09:02.691Z,1.77
2022-07-25T18:15:05.257Z,1.85
2022-07-25T18:21:07.036Z,2.00
2022-07-25T18:27:08.977Z,2.00
2022-07-25T18:33:10.862Z,2.58
2022-07-25T18:39:12.647Z,2.08
2022-07-25T18:45:14.735Z,2.15
2022-07-25T18:51:16.732Z,2.53
2022-07-25T18:57:18.689Z,2.60
2022-07-25T19:03:20.421Z,2.30
2022-07-25T19:09:22.199Z,3.50
2022-07-25T19:15:24.273Z,2.78
2022-07-25T19:21:26.134Z,2.67
2022-07-25T19:27:29.010Z,2.92
2022-07-25T19:33:34.739Z,2.95
2022-07-25T19:39:37.874Z,2.60
2022-07-25T19:45:39.724Z,2.75
2022-07-25T19:51:41.768Z,2.50
2022-07-25T19:57:43.932Z,2.85
2022-07-25T20:03:45.676Z,2.20
2022-07-25T20:09:47.394Z,2.80
2022-07-25T20:15:49.375Z,2.22
2022-07-25T20:21:51.766Z,2.47
2022-07-25T20:27:53.621Z,2.20
2022-07-25T20:33:55.436Z,2.35
2022-07-25T20:39:57.446Z,1.95
2022-07-25T20:46:00.533Z,1.88
2022-07-25T20:52:02.478Z,1.80
2022-07-25T20:58:05.041Z,1.50
2022-07-25T21:04:07.952Z,1.70
2022-07-25T21:10:10.745Z,1.23
2022-07-25T21:16:12.515Z,1.37
2022-07-25T21:22:15.792Z,1.25
2022-07-25T21:28:17.565Z,1.13
2022-07-25T21:34:19.999Z,1.20
2022-07-25T21:40:22.718Z,1.00
2022-07-25T21:46:24.723Z,1.63
2022-07-25T21:52:29.959Z,1.20
2022-07-25T21:58:35.679Z,0.90
2022-07-25T22:04:37.887Z,1.10
2022-07-25T22:10:39.673Z,1.20
2022-07-25T22:16:42.176Z,1.00
2022-07-25T22:22:44.014Z,0.90
2022-07-25T22:28:46.157Z,1.33
2022-07-25T22:34:47.957Z,1.02
2022-07-25T22:40:49.704Z,1.05
2022-07-25T22:46:51.418Z,1.25
2022-07-25T22:52:53.218Z,1.20
2022-07-25T22:58:55.508Z,1.02
2022-07-25T23:04:57.225Z,1.02
2022-07-25T23:10:58.971Z,1.10
2022-07-25T23:17:20.238Z,0.80
2022-07-25T23:23:22.115Z,0.70
2022-07-25T23:29:23.962Z,0.90
2022-07-25T23:35:25.983Z,0.88
2022-07-25T23:41:27.705Z,1.38
2022-07-25T23:47:39.786Z,1.35
2022-07-25T23:53:42.406Z,0.63
2022-07-25T23:59:44.240Z,0.90
